createdAt,value
2022-12-09T00:00:36.608Z,88.20
2022-12-09T00:03:03.468Z,88.18
2022-12-09T00:05:30.125Z,88.30
2022-12-09T00:07:57.068Z,88.53
2022-12-09T00:10:23.779Z,88.60
2022-12-09T00:12:54.448Z,88.55
2022-12-09T00:15:21.357Z,88.61
2022-12-09T00:17:48.117Z,88.73
2022-12-09T00:20:15.119Z,88.74
2022-12-09T00:22:41.818Z,88.64
2022-12-09T00:25:08.729Z,88.70
2022-12-09T00:27:35.378Z,88.71
2022-12-09T00:30:02.019Z,88.82
2022-12-09T00:32:28.825Z,88.67
2022-12-09T00:34:55.791Z,88.46
2022-12-09T00:37:23.492Z,88.40
2022-12-09T00:39:50.094Z,88.38
2022-12-09T00:42:16.967Z,88.52
2022-12-09T00:44:43.766Z,88.44
2022-12-09T00:47:10.640Z,88.59
2022-12-09T00:49:37.363Z,88.57
2022-12-09T00:52:04.294Z,88.59
2022-12-09T00:54:30.991Z,88.39
2022-12-09T00:56:57.794Z,88.57
2022-12-09T00:59:24.571Z,88.66
2022-12-09T01:01:51.427Z,88.59
2022-12-09T01:04:18.194Z,88.67
2022-12-09T01:06:44.778Z,88.74
2022-12-09T01:09:11.664Z,88.67
2022-12-09T01:11:38.396Z,88.74
2022-12-09T01:14:05.209Z,88.72
2022-12-09T01:16:33.839Z,88.86
2022-12-09T01:19:04.941Z,88.74
2022-12-09T01:21:32.624Z,88.93
2022-12-09T01:23:59.760Z,88.89
2022-12-09T01:26:27.131Z,88.75
2022-12-09T01:28:55.449Z,88.70
2022-12-09T01:31:24.119Z,88.76
2022-12-09T01:33:51.821Z,88.61
2022-12-09T01:36:21.107Z,88.67
2022-12-09T01:38:48.782Z,88.48
2022-12-09T01:41:17.184Z,88.55
2022-12-09T01:43:46.614Z,88.89
2022-12-09T01:46:13.283Z,88.80
2022-12-09T01:48:46.622Z,89.04
2022-12-09T01:51:18.419Z,88.83
2022-12-09T01:53:47.680Z,89.06
2022-12-09T01:56:22.472Z,89.22
2022-12-09T01:58:50.983Z,89.26
2022-12-09T02:01:18.282Z,89.18
2022-12-09T02:03:45.827Z,89.13
2022-12-09T02:06:12.795Z,89.20
2022-12-09T02:08:40.280Z,89.27
2022-12-09T02:11:28.939Z,89.25
2022-12-09T02:13:58.578Z,89.27
2022-12-09T02:16:29.394Z,89.31
2022-12-09T02:19:05.814Z,89.04
2022-12-09T02:21:59.566Z,89.05
2022-12-09T02:24:41.923Z,88.98
2022-12-09T02:27:25.150Z,89.02
2022-12-09T02:30:03.602Z,89.16
2022-12-09T02:32:46.156Z,89.15
2022-12-09T02:35:30.579Z,89.01
2022-12-09T02:38:07.911Z,89.04
2022-12-09T02:40:44.079Z,89.08
2022-12-09T02:43:12.769Z,89.12
2022-12-09T02:45:41.467Z,88.99
2022-12-09T02:48:11.179Z,89.24
2022-12-09T02:50:40.611Z,89.03
2022-12-09T02:53:12.349Z,89.12
2022-12-09T02:55:42.801Z,89.03
2022-12-09T02:58:09.914Z,89.12
2022-12-09T03:00:38.316Z,88.94
2022-12-09T03:03:11.421Z,89.16
2022-12-09T03:06:00.827Z,89.23
2022-12-09T03:08:30.764Z,89.32
2022-12-09T03:10:57.791Z,89.42
2022-12-09T03:13:57.159Z,89.23
2022-12-09T03:16:37.026Z,89.21
2022-12-09T03:19:12.903Z,89.06
2022-12-09T03:21:44.072Z,89.05
2022-12-09T03:24:15.382Z,89.11
2022-12-09T03:26:43.297Z,89.15
2022-12-09T03:29:17.686Z,89.34
2022-12-09T03:31:46.959Z,89.31
2022-12-09T03:34:17.114Z,89.28
2022-12-09T03:36:45.429Z,89.33
2022-12-09T03:39:20.475Z,89.28
2022-12-09T03:41:59.600Z,89.28
2022-12-09T03:44:38.691Z,89.40
2022-12-09T03:47:06.959Z,89.25
2022-12-09T03:49:34.413Z,89.37
2022-12-09T03:52:08.094Z,89.55
2022-12-09T03:54:43.558Z,89.53
2022-12-09T03:57:18.474Z,89.33
2022-12-09T03:59:55.344Z,89.37
2022-12-09T04:02:22.659Z,89.39
2022-12-09T04:04:49.599Z,89.60
2022-12-09T04:07:17.611Z,89.50
2022-12-09T04:09:45.373Z,89.38
2022-12-09T04:12:12.285Z,89.32
2022-12-09T04:14:42.588Z,89.33
2022-12-09T04:17:10.457Z,89.45
2022-12-09T04:19:37.017Z,89.32
2022-12-09T04:22:04.813Z,89.53
2022-12-09T04:24:31.698Z,89.52
2022-12-09T04:26:58.639Z,89.55
2022-12-09T04:29:25.326Z,89.43
2022-12-09T04:31:52.117Z,89.54
2022-12-09T04:34:18.777Z,89.50
2022-12-09T04:36:45.692Z,89.66
2022-12-09T04:39:12.288Z,89.67
2022-12-09T04:41:39.033Z,89.45
2022-12-09T04:44:05.963Z,89.62
2022-12-09T04:46:33.218Z,89.64
2022-12-09T04:48:59.951Z,89.80
2022-12-09T04:51:26.974Z,89.60
2022-12-09T04:53:53.868Z,89.60
2022-12-09T04:56:21.750Z,89.45
2022-12-09T04:58:49.949Z,89.64
2022-12-09T05:01:22.661Z,89.79
2022-12-09T05:03:54.109Z,89.66
2022-12-09T05:06:22.076Z,89.46
2022-12-09T05:08:49.901Z,89.49
2022-12-09T05:11:19.879Z,89.83
2022-12-09T05:13:47.182Z,89.71
2022-12-09T05:16:17.614Z,89.88
2022-12-09T05:18:46.566Z,89.75
2022-12-09T05:21:19.329Z,89.55
2022-12-09T05:23:46.592Z,89.70
2022-12-09T05:26:17.187Z,89.72
2022-12-09T05:28:44.393Z,89.81
2022-12-09T05:31:18.141Z,89.89
2022-12-09T05:33:46.098Z,89.77
2022-12-09T05:36:15.774Z,89.82
2022-12-09T05:38:43.003Z,89.75
2022-12-09T05:41:10.383Z,89.90
2022-12-09T05:43:37.589Z,89.96
2022-12-09T05:46:05.710Z,89.79
2022-12-09T05:48:33.393Z,89.68
2022-12-09T05:51:02.847Z,89.74
2022-12-09T05:53:29.881Z,89.77
2022-12-09T05:55:57.388Z,89.92
2022-12-09T05:58:24.683Z,89.88
2022-12-09T06:00:51.519Z,89.80
2022-12-09T06:03:18.716Z,89.75
2022-12-09T06:05:46.052Z,89.71
2022-12-09T06:08:12.929Z,89.66
2022-12-09T06:10:41.353Z,89.77
2022-12-09T06:13:09.007Z,89.67
2022-12-09T06:15:36.750Z,89.97
2022-12-09T06:18:03.954Z,89.76
2022-12-09T06:20:31.287Z,89.45
2022-12-09T06:22:58.866Z,89.95
2022-12-09T06:25:25.696Z,89.77
2022-12-09T06:27:53.934Z,89.84
2022-12-09T06:30:21.146Z,90.00
2022-12-09T06:32:48.369Z,89.97
2022-12-09T06:35:15.915Z,90.04
2022-12-09T06:37:43.594Z,90.12
2022-12-09T06:40:11.291Z,90.20
2022-12-09T06:42:38.474Z,90.09
2022-12-09T06:45:06.602Z,89.95
2022-12-09T06:47:35.904Z,90.12
2022-12-09T06:50:07.008Z,90.08
2022-12-09T06:52:35.952Z,89.98
2022-12-09T06:55:03.031Z,89.95
2022-12-09T06:57:30.045Z,90.01
2022-12-09T06:59:56.847Z,90.07
2022-12-09T07:02:24.102Z,90.02
2022-12-09T07:04:55.247Z,89.91
2022-12-09T07:07:23.336Z,90.00
2022-12-09T07:09:58.884Z,89.98
2022-12-09T07:12:26.051Z,89.98
2022-12-09T07:14:52.894Z,90.01
2022-12-09T07:17:21.713Z,89.66
2022-12-09T07:22:35.695Z,89.64
2022-12-09T07:25:02.812Z,89.76
2022-12-09T07:30:13.595Z,89.91
2022-12-09T07:32:40.702Z,89.96
2022-12-09T07:35:08.531Z,90.11
2022-12-09T07:37:35.536Z,90.13
2022-12-09T07:40:02.557Z,90.10
2022-12-09T07:42:31.309Z,90.11
2022-12-09T07:45:05.929Z,89.79
2022-12-09T07:47:33.644Z,89.61
2022-12-09T07:50:06.341Z,89.67
2022-12-09T07:52:37.810Z,89.48
2022-12-09T07:55:07.934Z,89.25
2022-12-09T07:57:38.954Z,89.09
2022-12-09T08:00:07.480Z,88.66
2022-12-09T08:02:34.262Z,88.36
2022-12-09T08:05:02.244Z,88.46
2022-12-09T08:07:29.308Z,88.47
2022-12-09T08:09:56.552Z,88.29
2022-12-09T08:12:23.712Z,88.35
2022-12-09T08:14:51.859Z,88.38
2022-12-09T08:17:18.655Z,88.03
2022-12-09T08:19:49.992Z,88.12
2022-12-09T08:22:23.788Z,88.00
2022-12-09T08:24:51.022Z,87.95
2022-12-09T08:27:17.936Z,87.90
2022-12-09T08:29:45.476Z,87.53
2022-12-09T08:32:12.825Z,87.32
2022-12-09T08:34:40.390Z,87.66
2022-12-09T08:37:07.424Z,88.34
2022-12-09T08:39:37.510Z,88.58
2022-12-09T08:42:05.000Z,88.02
2022-12-09T08:44:32.980Z,87.17
2022-12-09T08:47:00.070Z,86.96
2022-12-09T08:49:28.284Z,86.68
2022-12-09T08:51:55.455Z,86.74
2022-12-09T08:54:22.452Z,86.50
2022-12-09T08:56:55.221Z,86.50
2022-12-09T08:59:23.830Z,86.54
2022-12-09T09:01:52.587Z,86.37
2022-12-09T09:04:21.703Z,86.62
2022-12-09T09:06:56.302Z,86.60
2022-12-09T09:09:26.129Z,86.54
2022-12-09T09:11:56.028Z,86.36
2022-12-09T09:14:29.273Z,86.35
2022-12-09T09:16:56.272Z,86.21
2022-12-09T09:19:26.184Z,86.32
2022-12-09T09:21:54.621Z,86.45
2022-12-09T09:24:24.610Z,86.34
2022-12-09T09:26:52.618Z,85.97
2022-12-09T09:29:21.519Z,85.82
2022-12-09T09:31:50.459Z,85.63
2022-12-09T09:34:18.016Z,85.37
2022-12-09T09:36:49.830Z,84.58
2022-12-09T09:39:18.602Z,84.30
2022-12-09T09:41:57.168Z,83.21
2022-12-09T09:44:45.519Z,82.37
2022-12-09T09:47:17.799Z,82.07
2022-12-09T09:49:48.713Z,82.23
2022-12-09T09:52:19.189Z,82.37
2022-12-09T09:54:47.992Z,82.22
2022-12-09T09:57:36.139Z,81.55
2022-12-09T10:00:26.698Z,81.15
2022-12-09T10:03:14.525Z,80.97
2022-12-09T10:06:02.877Z,80.52
2022-12-09T10:09:14.231Z,79.69
2022-12-09T10:11:56.162Z,79.61
2022-12-09T10:14:39.529Z,79.44
2022-12-09T10:17:20.403Z,78.95
2022-12-09T10:20:24.343Z,78.18
2022-12-09T10:23:16.456Z,76.74
2022-12-09T10:25:54.085Z,76.16
2022-12-09T10:28:49.641Z,76.12
2022-12-09T10:31:21.305Z,75.78
2022-12-09T10:33:49.695Z,75.38
2022-12-09T10:36:32.158Z,75.40
2022-12-09T10:39:03.117Z,74.98
2022-12-09T10:42:04.054Z,74.99
2022-12-09T10:44:31.176Z,75.16
2022-12-09T10:47:04.316Z,74.68
2022-12-09T10:49:33.544Z,74.64
2022-12-09T10:52:01.543Z,74.11
2022-12-09T10:54:48.322Z,73.85
2022-12-09T10:57:15.826Z,73.96
2022-12-09T10:59:57.008Z,73.92
2022-12-09T11:02:27.134Z,74.41
2022-12-09T11:04:55.908Z,75.33
2022-12-09T11:07:27.059Z,76.21
2022-12-09T11:09:57.536Z,76.64
2022-12-09T11:12:29.950Z,76.84
2022-12-09T11:15:01.344Z,76.85
2022-12-09T11:17:31.579Z,76.58
2022-12-09T11:20:24.476Z,77.26
2022-12-09T11:23:13.567Z,77.58
2022-12-09T11:26:01.985Z,77.88
2022-12-09T11:28:38.502Z,77.80
2022-12-09T11:31:35.809Z,77.77
2022-12-09T11:34:14.302Z,77.74
2022-12-09T11:36:46.883Z,77.56
2022-12-09T11:39:24.530Z,77.44
2022-12-09T11:42:18.582Z,77.25
2022-12-09T11:44:56.556Z,77.33
2022-12-09T11:47:27.159Z,77.13
2022-12-09T11:49:59.164Z,77.17
2022-12-09T11:52:29.488Z,77.16
2022-12-09T11:55:12.276Z,76.79
2022-12-09T11:58:17.666Z,77.52
2022-12-09T12:00:52.547Z,78.37
2022-12-09T12:03:24.133Z,78.88
2022-12-09T12:05:53.407Z,79.24
2022-12-09T12:08:30.644Z,79.39
2022-12-09T12:11:02.023Z,79.89
2022-12-09T12:13:31.617Z,79.80
2022-12-09T12:16:17.145Z,79.94
2022-12-09T12:18:53.531Z,79.96
2022-12-09T12:21:32.367Z,80.09
2022-12-09T12:24:10.699Z,79.95
2022-12-09T12:26:51.173Z,80.16
2022-12-09T12:29:44.009Z,80.06
2022-12-09T12:32:25.777Z,80.02
2022-12-09T12:35:16.643Z,80.31
2022-12-09T12:38:21.268Z,80.27
2022-12-09T12:41:29.838Z,80.16
2022-12-09T12:44:53.107Z,80.32
2022-12-09T12:47:40.338Z,80.05
2022-12-09T12:50:43.688Z,80.09
2022-12-09T12:53:31.868Z,80.48
2022-12-09T12:56:07.611Z,80.63
2022-12-09T12:58:53.750Z,80.69
2022-12-09T13:01:23.044Z,80.95
2022-12-09T13:04:13.601Z,81.37
2022-12-09T13:07:02.101Z,81.28
2022-12-09T13:09:45.034Z,81.66
2022-12-09T13:12:15.139Z,81.59
2022-12-09T13:14:54.820Z,81.88
2022-12-09T13:17:28.685Z,81.97
2022-12-09T13:20:01.201Z,82.02
2022-12-09T13:22:54.354Z,82.33
2022-12-09T13:25:39.120Z,82.38
2022-12-09T13:28:32.223Z,82.37
2022-12-09T13:30:59.967Z,82.54
2022-12-09T13:33:26.531Z,82.27
2022-12-09T13:36:12.622Z,82.18
2022-12-09T13:38:42.724Z,82.13
2022-12-09T13:41:33.736Z,82.02
2022-12-09T13:44:14.516Z,82.27
2022-12-09T13:46:43.059Z,82.21
2022-12-09T13:49:20.572Z,82.16
2022-12-09T13:51:52.687Z,82.10
2022-12-09T13:54:22.404Z,82.09
2022-12-09T13:57:06.987Z,82.41
2022-12-09T13:59:43.030Z,82.28
2022-12-09T14:02:37.544Z,81.89
2022-12-09T14:05:12.962Z,82.22
2022-12-09T14:07:46.704Z,82.37
2022-12-09T14:10:50.984Z,82.39
2022-12-09T14:13:35.022Z,82.13
2022-12-09T14:16:35.453Z,82.14
2022-12-09T14:19:34.550Z,81.94
2022-12-09T14:22:22.351Z,81.90
2022-12-09T14:24:50.804Z,81.83
2022-12-09T14:27:25.970Z,81.85
2022-12-09T14:30:23.979Z,81.86
2022-12-09T14:32:50.569Z,81.41
2022-12-09T14:35:30.535Z,81.75
2022-12-09T14:39:07.831Z,81.61
2022-12-09T14:41:58.702Z,81.47
2022-12-09T14:44:36.502Z,81.70
2022-12-09T14:47:14.339Z,81.61
2022-12-09T14:49:48.512Z,81.91
2022-12-09T14:52:29.762Z,82.05
2022-12-09T14:55:00.082Z,82.11
2022-12-09T14:57:32.835Z,82.10
2022-12-09T14:59:59.690Z,82.24
2022-12-09T15:02:31.899Z,82.45
2022-12-09T15:05:01.295Z,82.99
2022-12-09T15:07:33.448Z,83.06
2022-12-09T15:10:01.531Z,83.54
2022-12-09T15:12:50.381Z,83.92
2022-12-09T15:15:26.802Z,84.28
2022-12-09T15:17:58.050Z,84.51
2022-12-09T15:20:30.711Z,84.73
2022-12-09T15:23:05.463Z,85.16
2022-12-09T15:25:34.414Z,85.40
2022-12-09T15:28:05.978Z,85.78
2022-12-09T15:30:37.558Z,86.04
2022-12-09T15:33:14.480Z,86.27
2022-12-09T15:35:43.422Z,86.48
2022-12-09T15:38:10.611Z,86.46
2022-12-09T15:40:38.574Z,86.84
2022-12-09T15:43:10.878Z,87.21
2022-12-09T15:45:42.535Z,87.30
2022-12-09T15:48:18.434Z,87.58
2022-12-09T15:50:52.784Z,88.00
2022-12-09T15:53:33.504Z,88.29
2022-12-09T15:56:11.727Z,88.32
2022-12-09T15:58:52.490Z,88.32
2022-12-09T16:01:32.539Z,88.62
2022-12-09T16:04:00.845Z,89.02
2022-12-09T16:06:36.656Z,89.27
2022-12-09T16:09:12.773Z,89.43
2022-12-09T16:11:40.656Z,89.64
2022-12-09T16:14:08.126Z,89.89
2022-12-09T16:16:48.025Z,90.16
2022-12-09T16:19:32.611Z,90.25
2022-12-09T16:22:07.334Z,90.51
2022-12-09T16:25:12.961Z,90.56
2022-12-09T16:27:33.687Z,90.81
2022-12-09T16:30:12.778Z,90.83
2022-12-09T16:33:01.022Z,91.05
2022-12-09T16:35:29.782Z,91.18
2022-12-09T16:37:56.370Z,91.28
2022-12-09T16:40:23.646Z,91.40
2022-12-09T16:42:53.383Z,91.49
2022-12-09T16:45:19.986Z,91.52
2022-12-09T16:47:46.995Z,91.66
2022-12-09T16:50:13.740Z,91.63
2022-12-09T16:52:40.395Z,91.84
2022-12-09T16:55:19.197Z,91.91
2022-12-09T16:57:46.255Z,91.88
2022-12-09T17:00:14.015Z,91.94
2022-12-09T17:02:45.929Z,92.18
2022-12-09T17:05:18.888Z,92.18
2022-12-09T17:07:46.635Z,92.14
2022-12-09T17:10:14.702Z,92.18
2022-12-09T17:12:41.325Z,92.36
2022-12-09T17:15:09.632Z,92.46
2022-12-09T17:17:36.289Z,92.36
2022-12-09T17:20:02.992Z,92.42
2022-12-09T17:22:29.815Z,92.59
2022-12-09T17:24:56.440Z,92.60
2022-12-09T17:27:23.031Z,92.61
2022-12-09T17:29:49.692Z,92.77
2022-12-09T17:32:16.595Z,92.74
2022-12-09T17:34:43.318Z,92.98
2022-12-09T17:37:10.090Z,93.05
2022-12-09T17:39:37.142Z,92.90
2022-12-09T17:42:04.855Z,92.94
2022-12-09T17:44:31.491Z,93.01
2022-12-09T17:46:59.166Z,93.30
2022-12-09T17:49:25.785Z,93.24
2022-12-09T17:51:52.519Z,93.28
2022-12-09T17:54:19.204Z,93.25
2022-12-09T17:56:46.779Z,93.35
2022-12-09T17:59:15.530Z,93.33
2022-12-09T18:01:44.242Z,93.39
2022-12-09T18:04:11.050Z,93.51
2022-12-09T18:06:44.886Z,93.46
2022-12-09T18:09:17.800Z,93.57
2022-12-09T18:11:45.529Z,93.56
2022-12-09T18:14:12.578Z,93.71
2022-12-09T18:16:39.361Z,93.82
2022-12-09T18:19:11.150Z,93.74
2022-12-09T18:21:37.920Z,93.82
2022-12-09T18:24:05.006Z,93.70
2022-12-09T18:26:36.674Z,93.86
2022-12-09T18:29:07.919Z,93.86
2022-12-09T18:31:34.757Z,93.96
2022-12-09T18:34:01.395Z,93.99
2022-12-09T18:36:28.750Z,94.06
2022-12-09T18:38:58.059Z,94.10
2022-12-09T18:41:30.108Z,94.14
2022-12-09T18:43:59.215Z,94.14
2022-12-09T18:46:34.869Z,94.21
2022-12-09T18:49:13.879Z,94.35
2022-12-09T18:51:42.402Z,94.45
2022-12-09T18:54:12.285Z,94.45
2022-12-09T18:56:39.104Z,94.55
2022-12-09T18:59:07.583Z,94.45
2022-12-09T19:01:39.961Z,94.49
2022-12-09T19:04:11.529Z,94.41
2022-12-09T19:06:40.223Z,94.68
2022-12-09T19:09:10.226Z,94.61
2022-12-09T19:11:39.271Z,94.71
2022-12-09T19:14:08.469Z,94.65
2022-12-09T19:16:35.727Z,94.61
2022-12-09T19:19:09.043Z,94.78
2022-12-09T19:21:36.738Z,94.68
2022-12-09T19:24:03.375Z,94.81
2022-12-09T19:26:32.648Z,94.79
2022-12-09T19:29:01.692Z,94.82
2022-12-09T19:31:36.391Z,94.71
2022-12-09T19:34:19.809Z,94.77
2022-12-09T19:36:50.243Z,94.73
2022-12-09T19:39:20.167Z,94.87
2022-12-09T19:41:47.328Z,94.87
2022-12-09T19:44:30.902Z,94.85
2022-12-09T19:47:03.011Z,95.04
2022-12-09T19:49:29.572Z,94.97
2022-12-09T19:51:56.192Z,95.12
2022-12-09T19:54:28.218Z,95.18
2022-12-09T19:56:56.657Z,95.05
2022-12-09T19:59:23.294Z,95.33
2022-12-09T20:01:49.932Z,95.28
2022-12-09T20:04:47.747Z,95.23
2022-12-09T20:07:08.295Z,95.21
2022-12-09T20:09:35.482Z,95.22
2022-12-09T20:12:02.095Z,95.17
2022-12-09T20:14:28.682Z,95.11
2022-12-09T20:16:55.300Z,95.15
2022-12-09T20:19:21.922Z,95.18
2022-12-09T20:21:49.475Z,95.06
2022-12-09T20:24:16.201Z,95.03
2022-12-09T20:26:44.918Z,95.18
2022-12-09T20:29:12.060Z,95.14
2022-12-09T20:31:40.041Z,95.21
2022-12-09T20:34:16.445Z,95.20
2022-12-09T20:36:46.270Z,95.18
2022-12-09T20:39:19.117Z,95.19
2022-12-09T20:41:48.099Z,95.18
2022-12-09T20:44:16.515Z,95.13
2022-12-09T20:46:49.772Z,95.28
2022-12-09T20:49:17.029Z,95.23
2022-12-09T20:51:47.126Z,95.34
2022-12-09T20:54:13.941Z,95.34
2022-12-09T20:56:41.162Z,95.24
2022-12-09T20:59:10.185Z,95.32
2022-12-09T21:01:37.557Z,95.45
2022-12-09T21:04:06.593Z,95.42
2022-12-09T21:06:37.552Z,95.46
2022-12-09T21:09:07.955Z,95.45
2022-12-09T21:11:34.716Z,95.34
2022-12-09T21:14:03.643Z,95.33
2022-12-09T21:16:33.148Z,95.57
2022-12-09T21:19:05.835Z,95.42
2022-12-09T21:21:36.481Z,95.62
2022-12-09T21:24:04.254Z,95.55
2022-12-09T21:26:31.501Z,95.54
2022-12-09T21:29:00.576Z,95.50
2022-12-09T21:31:30.717Z,95.49
2022-12-09T21:33:59.015Z,95.49
2022-12-09T21:36:28.395Z,95.52
2022-12-09T21:38:55.604Z,95.65
2022-12-09T21:41:25.311Z,95.54
2022-12-09T21:43:55.044Z,95.58
2022-12-09T21:46:29.458Z,95.36
2022-12-09T21:49:03.232Z,95.46
2022-12-09T21:51:30.764Z,95.57
2022-12-09T21:53:57.642Z,95.42
2022-12-09T21:56:27.618Z,95.44
2022-12-09T21:58:56.833Z,95.61
2022-12-09T22:01:35.314Z,95.64
2022-12-09T22:04:04.034Z,95.61
2022-12-09T22:06:31.115Z,95.47
2022-12-09T22:08:59.779Z,95.51
2022-12-09T22:11:29.579Z,95.63
2022-12-09T22:13:58.570Z,95.53
2022-12-09T22:16:28.466Z,95.68
2022-12-09T22:18:56.947Z,95.63
2022-12-09T22:21:27.008Z,95.63
2022-12-09T22:23:56.855Z,95.52
2022-12-09T22:26:24.276Z,95.57
2022-12-09T22:28:51.833Z,95.66
2022-12-09T22:31:24.087Z,95.58
2022-12-09T22:33:52.558Z,95.49
2022-12-09T22:36:20.035Z,95.63
2022-12-09T22:38:47.391Z,95.57
2022-12-09T22:41:22.644Z,95.47
2022-12-09T22:43:50.048Z,95.53
2022-12-09T22:46:20.929Z,95.60
2022-12-09T22:48:48.417Z,95.50
2022-12-09T22:51:18.578Z,95.64
2022-12-09T22:53:48.344Z,95.50
2022-12-09T22:56:15.377Z,95.66
2022-12-09T22:58:42.087Z,95.52
2022-12-09T23:01:11.156Z,95.59
2022-12-09T23:03:38.630Z,95.57
2022-12-09T23:06:05.837Z,95.53
2022-12-09T23:08:37.417Z,95.65
2022-12-09T23:11:08.060Z,95.60
2022-12-09T23:13:40.746Z,95.63
2022-12-09T23:16:09.296Z,95.56
2022-12-09T23:18:36.324Z,95.65
2022-12-09T23:21:11.377Z,95.73
2022-12-09T23:23:57.522Z,95.56
2022-12-09T23:26:26.989Z,95.57
2022-12-09T23:28:55.596Z,95.59
2022-12-09T23:31:27.720Z,95.68
2022-12-09T23:33:55.751Z,95.61
2022-12-09T23:36:28.670Z,95.69
2022-12-09T23:38:55.232Z,95.31
2022-12-09T23:41:23.111Z,95.54
2022-12-09T23:43:50.952Z,95.50
2022-12-09T23:46:20.498Z,95.39
2022-12-09T23:48:48.598Z,95.51
2022-12-09T23:51:20.062Z,95.56
2022-12-09T23:53:48.239Z,95.34
2022-12-09T23:56:18.443Z,95.48
2022-12-09T23:58:46.625Z,95.46
